createdAt,value
2023-03-06T00:00:00.431Z,7.6
2023-03-06T00:05:00.444Z,7.6
2023-03-06T00:10:00.454Z,7.09
2023-03-06T00:15:00.542Z,7.09
2023-03-06T00:20:02.867Z,7.09
2023-03-06T00:25:00.335Z,7.09
2023-03-06T00:30:01.638Z,7.09
2023-03-06T00:35:01.406Z,7.69
2023-03-06T00:40:00.457Z,8.14
2023-03-06T00:45:02.266Z,8.14
2023-03-06T00:50:00.336Z,8.14
2023-03-06T00:55:00.365Z,7.88
2023-03-06T01:00:00.460Z,7.88
2023-03-06T01:05:00.584Z,7.37
2023-03-06T01:10:02.524Z,7.37
2023-03-06T01:15:00.357Z,7.37
2023-03-06T01:20:00.695Z,7.37
2023-03-06T01:25:00.601Z,7.37
2023-03-06T01:30:01.598Z,7.3
2023-03-06T01:35:00.293Z,7.86
2023-03-06T01:40:00.438Z,7.86
2023-03-06T01:45:00.601Z,7.86
2023-03-06T01:50:01.429Z,7.93
2023-03-06T01:55:00.354Z,7.43
2023-03-06T02:00:01.961Z,7.43
2023-03-06T02:05:00.299Z,7.43
2023-03-06T02:10:00.447Z,7.94
2023-03-06T02:15:00.780Z,7.94
2023-03-06T02:20:00.332Z,7.94
2023-03-06T02:25:04.064Z,7.94
2023-03-06T02:30:00.423Z,7.94
2023-03-06T02:35:00.349Z,7.89
2023-03-06T02:40:00.620Z,7.38
2023-03-06T02:45:01.329Z,8.17
2023-03-06T02:50:00.635Z,8.47
2023-03-06T02:55:00.967Z,7.94
2023-03-06T03:00:01.460Z,8.45
2023-03-06T03:05:00.329Z,8.43
2023-03-06T03:10:00.407Z,7.9
2023-03-06T03:15:00.621Z,7.78
2023-03-06T03:20:00.310Z,8.29
2023-03-06T03:25:00.796Z,7.96
2023-03-06T03:30:03.611Z,7.93
2023-03-06T03:35:00.366Z,7.93
2023-03-06T03:40:00.677Z,7.85
2023-03-06T03:45:01.616Z,7.85
2023-03-06T03:50:00.420Z,7.85
2023-03-06T03:55:01.571Z,7.85
2023-03-06T04:00:00.400Z,7.88
2023-03-06T04:05:00.374Z,8.09
2023-03-06T04:10:00.428Z,8.04
2023-03-06T04:15:00.893Z,8.04
2023-03-06T04:20:00.272Z,8.04
2023-03-06T04:25:00.323Z,7.89
2023-03-06T04:30:00.406Z,7.54
2023-03-06T04:35:00.320Z,7.54
2023-03-06T04:40:01.720Z,7.03
2023-03-06T04:45:01.438Z,7.03
2023-03-06T04:50:00.397Z,7.03
2023-03-06T04:55:00.643Z,7.03
2023-03-06T05:00:00.444Z,7.03
2023-03-06T05:05:00.278Z,8.07
2023-03-06T05:10:00.602Z,8.07
2023-03-06T05:15:00.712Z,8.07
2023-03-06T05:20:01.314Z,8.04
2023-03-06T05:25:00.453Z,8.04
2023-03-06T05:30:02.357Z,8.04
2023-03-06T05:35:00.276Z,8.04
2023-03-06T05:40:00.490Z,8.04
2023-03-06T05:45:02.064Z,8.04
2023-03-06T05:50:00.285Z,7.82
2023-03-06T05:55:02.509Z,7.82
2023-03-06T06:00:00.370Z,7.82
2023-03-06T06:05:00.324Z,7.82
2023-03-06T06:10:03.614Z,7.82
2023-03-06T06:15:01.556Z,7.82
2023-03-06T06:20:01.340Z,7.57
2023-03-06T06:25:00.337Z,7.57
2023-03-06T06:30:00.841Z,7.54
2023-03-06T06:35:01.409Z,7.54
2023-03-06T06:40:00.484Z,7.02
2023-03-06T06:45:01.117Z,7.02
2023-03-06T06:50:00.312Z,7.53
2023-03-06T06:55:02.365Z,7.53
2023-03-06T07:00:00.404Z,7
2023-03-06T07:05:05.098Z,7
2023-03-06T07:10:00.697Z,7
2023-03-06T07:15:00.639Z,7.6
2023-03-06T07:20:01.441Z,7.6
2023-03-06T07:25:00.292Z,7.51
2023-03-06T07:30:00.430Z,7.51
2023-03-06T07:35:18.946Z,8.02
2023-03-06T07:40:00.322Z,8.02
2023-03-06T07:45:01.115Z,8.02
2023-03-06T07:50:01.501Z,8.02
2023-03-06T07:55:00.325Z,8.02
2023-03-06T08:00:02.926Z,8.02
2023-03-06T08:05:00.346Z,8.52
2023-03-06T08:10:00.562Z,7.99
2023-03-06T08:15:00.527Z,7.48
2023-03-06T08:20:01.380Z,7.48
2023-03-06T08:25:00.597Z,7.48
2023-03-06T08:30:01.230Z,8.57
2023-03-06T08:35:00.573Z,8.57
2023-03-06T08:40:00.426Z,9.1
2023-03-06T08:45:00.951Z,9.1
2023-03-06T08:50:00.831Z,9.1
2023-03-06T08:55:00.347Z,9.1
2023-03-06T09:00:02.060Z,9.1
2023-03-06T09:05:00.296Z,8.64
2023-03-06T09:10:00.470Z,8.64
2023-03-06T09:15:01.554Z,8.57
2023-03-06T09:20:00.313Z,8.57
2023-03-06T09:25:01.378Z,9.12
2023-03-06T09:30:00.698Z,9.12
2023-03-06T09:35:00.520Z,9.51
2023-03-06T09:40:00.348Z,9.51
2023-03-06T09:45:01.371Z,9.51
2023-03-06T09:50:01.492Z,9.51
2023-03-06T09:55:00.315Z,9.51
2023-03-06T10:00:03.478Z,9.51
2023-03-06T10:05:00.341Z,10.02
2023-03-06T10:10:00.421Z,10.02
2023-03-06T10:15:00.932Z,10.02
2023-03-06T10:20:00.285Z,10.55
2023-03-06T10:25:00.684Z,9.98
2023-03-06T10:30:03.594Z,9.98
2023-03-06T10:35:00.314Z,9.45
2023-03-06T10:40:00.733Z,9.99
2023-03-06T10:45:00.512Z,10.53
2023-03-06T10:50:01.434Z,11.08
2023-03-06T10:55:00.338Z,10.2
2023-03-06T11:00:00.463Z,10.2
2023-03-06T11:05:01.439Z,10.2
2023-03-06T11:10:00.326Z,10.61
2023-03-06T11:15:01.298Z,10.61
2023-03-06T11:20:00.297Z,11.15
2023-03-06T11:25:00.603Z,10.64
2023-03-06T11:30:00.696Z,10.13
2023-03-06T11:35:00.369Z,10.13
2023-03-06T11:40:01.460Z,10.13
2023-03-06T11:45:03.078Z,10.68
2023-03-06T11:50:00.313Z,10.68
2023-03-06T11:55:00.714Z,10.92
2023-03-06T12:00:00.478Z,10.68
2023-03-06T12:05:01.702Z,10.68
2023-03-06T12:10:00.322Z,10.17
2023-03-06T12:15:00.833Z,10.17
2023-03-06T12:20:00.440Z,10.17
2023-03-06T12:25:00.426Z,10.17
2023-03-06T12:30:00.967Z,10.17
2023-03-06T12:35:00.454Z,10.7
2023-03-06T12:40:00.367Z,10.7
2023-03-06T12:45:01.547Z,10.7
2023-03-06T12:50:00.282Z,10.7
2023-03-06T12:55:00.376Z,10.24
2023-03-06T13:00:00.562Z,10.08
2023-03-06T13:05:00.457Z,9.96
2023-03-06T13:10:00.561Z,9.96
2023-03-06T13:15:00.614Z,9.96
2023-03-06T13:20:01.382Z,10.51
2023-03-06T13:25:06.857Z,10.51
2023-03-06T13:30:00.511Z,10.71
2023-03-06T13:35:00.305Z,10.71
2023-03-06T13:40:00.414Z,10.71
2023-03-06T13:45:01.378Z,10.86
2023-03-06T13:50:00.318Z,10.86
2023-03-06T13:55:00.342Z,10.91
2023-03-06T14:00:08.973Z,10.91
2023-03-06T14:05:00.323Z,10.91
2023-03-06T14:10:00.680Z,10.91
2023-03-06T14:15:00.465Z,10.91
2023-03-06T14:20:00.330Z,10.54
2023-03-06T14:25:00.294Z,9.5
2023-03-06T14:30:00.518Z,8.95
2023-03-06T14:35:01.391Z,8.93
2023-03-06T14:40:01.700Z,8.93
2023-03-06T14:45:00.850Z,8.95
2023-03-06T14:50:00.318Z,8.85
2023-03-06T14:55:00.390Z,8.85
2023-03-06T15:00:00.857Z,8.85
2023-03-06T15:05:00.334Z,9.4
2023-03-06T15:10:02.448Z,9.4
2023-03-06T15:15:00.410Z,9.4
2023-03-06T15:20:00.366Z,9.4
2023-03-06T15:25:01.539Z,9.4
2023-03-06T15:30:00.907Z,9.4
2023-03-06T15:35:01.450Z,9.4
2023-03-06T15:40:00.668Z,9.41
2023-03-06T15:45:01.667Z,9.41
2023-03-06T15:50:01.359Z,9.41
2023-03-06T15:55:00.339Z,9.41
2023-03-06T16:00:01.883Z,9.41
2023-03-06T16:05:00.318Z,9.41
2023-03-06T16:10:00.366Z,9.41
2023-03-06T16:15:00.528Z,9.41
2023-03-06T16:20:00.325Z,9.41
2023-03-06T16:25:00.444Z,9.41
2023-03-06T16:30:00.840Z,9.41
2023-03-06T16:35:00.346Z,9.47
2023-03-06T16:40:02.023Z,9.47
2023-03-06T16:45:00.413Z,9.47
2023-03-06T16:50:00.581Z,9.35
2023-03-06T16:55:00.384Z,9.72
2023-03-06T17:00:00.637Z,9.74
2023-03-06T17:05:00.318Z,9.74
2023-03-06T17:10:00.418Z,9.74
2023-03-06T17:15:02.601Z,9.23
2023-03-06T17:20:00.333Z,9.19
2023-03-06T17:25:00.408Z,9.19
2023-03-06T17:30:01.085Z,9.19
2023-03-06T17:35:00.317Z,9.81
2023-03-06T17:40:02.191Z,9.81
2023-03-06T17:45:01.573Z,9.81
2023-03-06T17:50:00.346Z,8.93
2023-03-06T17:55:01.476Z,8.85
2023-03-06T18:00:02.011Z,8.8
2023-03-06T18:05:00.745Z,8.83
2023-03-06T18:10:00.357Z,8.83
2023-03-06T18:15:00.466Z,8.83
2023-03-06T18:20:00.500Z,8.83
2023-03-06T18:25:00.351Z,8.83
2023-03-06T18:30:00.733Z,8.31
2023-03-06T18:35:00.316Z,8.31
2023-03-06T18:40:00.351Z,8.31
2023-03-06T18:45:01.249Z,8.31
2023-03-06T18:50:00.317Z,8.31
2023-03-06T18:55:01.773Z,7.79
2023-03-06T19:00:00.372Z,7.79
2023-03-06T19:05:01.383Z,7.79
2023-03-06T19:10:00.700Z,8.3
2023-03-06T19:15:00.439Z,8.3
2023-03-06T19:20:00.396Z,8.3
2023-03-06T19:25:02.706Z,8.3
2023-03-06T19:30:00.669Z,8.23
2023-03-06T19:35:00.348Z,8.23
2023-03-06T19:40:00.465Z,8.23
2023-03-06T19:45:02.011Z,7.75
2023-03-06T19:50:00.328Z,8.3
2023-03-06T19:55:00.643Z,8.3
2023-03-06T20:00:01.525Z,8.3
2023-03-06T20:05:00.373Z,8.3
2023-03-06T20:10:00.740Z,8.3
2023-03-06T20:15:00.449Z,8.3
2023-03-06T20:20:01.496Z,8.3
2023-03-06T20:25:00.310Z,8.72
2023-03-06T20:30:00.510Z,8.72
2023-03-06T20:35:00.442Z,8.3
2023-03-06T20:40:00.416Z,8.3
2023-03-06T20:45:01.534Z,8.3
2023-03-06T20:50:00.307Z,8.36
2023-03-06T20:55:00.440Z,8.43
2023-03-06T21:00:00.971Z,8.21
2023-03-06T21:05:00.400Z,8.21
2023-03-06T21:10:00.351Z,8.21
2023-03-06T21:15:01.914Z,8.21
2023-03-06T21:20:00.525Z,8.48
2023-03-06T21:25:00.485Z,8.48
2023-03-06T21:30:00.744Z,8.26
2023-03-06T21:35:00.292Z,8.26
2023-03-06T21:40:01.248Z,8.26
2023-03-06T21:45:00.495Z,7.69
2023-03-06T21:50:00.523Z,7.69
2023-03-06T21:55:02.270Z,8.27
2023-03-06T22:00:01.601Z,8.27
2023-03-06T22:05:00.295Z,8.47
2023-03-06T22:10:00.453Z,8.47
2023-03-06T22:15:00.716Z,8.98
2023-03-06T22:20:00.334Z,8.98
2023-03-06T22:25:01.482Z,8.44
2023-03-06T22:30:00.465Z,8.44
2023-03-06T22:35:00.306Z,7.93
2023-03-06T22:40:00.383Z,7.93
2023-03-06T22:45:00.676Z,7.37
2023-03-06T22:50:01.304Z,7.89
2023-03-06T22:55:00.310Z,7.3
2023-03-06T23:00:01.517Z,7.3
2023-03-06T23:05:00.311Z,7.3
2023-03-06T23:10:00.351Z,7.41
2023-03-06T23:15:01.319Z,7.41
2023-03-06T23:20:00.309Z,7.09
2023-03-06T23:25:00.357Z,7.09
2023-03-06T23:30:00.986Z,7.09
2023-03-06T23:35:00.315Z,6.56
2023-03-06T23:40:00.643Z,6.56
2023-03-06T23:45:01.109Z,6.04
2023-03-06T23:50:02.950Z,6.04
2023-03-06T23:55:00.336Z,6.56
